createdAt,value
2019-05-20T00:00:40.930Z,7.60
2019-05-20T00:03:10.738Z,8.78
2019-05-20T00:05:40.498Z,7.12
2019-05-20T00:08:10.311Z,7.12
2019-05-20T00:10:39.968Z,8.70
2019-05-20T00:13:09.857Z,9.50
2019-05-20T00:15:39.543Z,8.28
2019-05-20T00:18:09.254Z,9.90
2019-05-20T00:20:38.924Z,9.55
2019-05-20T00:23:08.635Z,10.05
2019-05-20T00:25:38.394Z,8.80
2019-05-20T00:28:08.156Z,10.55
2019-05-20T00:30:38.525Z,7.92
2019-05-20T00:33:09.920Z,11.08
2019-05-20T00:35:39.672Z,8.70
2019-05-20T00:38:09.381Z,10.32
2019-05-20T00:40:39.073Z,10.13
2019-05-20T00:43:08.887Z,8.80
2019-05-20T00:45:38.596Z,12.68
2019-05-20T00:48:08.390Z,9.78
2019-05-20T00:50:38.156Z,12.78
2019-05-20T00:53:07.957Z,9.78
2019-05-20T00:55:38.800Z,9.50
2019-05-20T00:58:27.712Z,10.28
2019-05-20T01:00:57.411Z,9.85
2019-05-20T01:03:27.120Z,9.73
2019-05-20T01:05:57.888Z,10.25
2019-05-20T01:08:27.606Z,10.03
2019-05-20T01:10:58.264Z,11.73
2019-05-20T01:13:27.988Z,11.48
2019-05-20T01:15:57.694Z,10.20
2019-05-20T01:18:27.648Z,10.93
2019-05-20T01:20:58.335Z,10.10
2019-05-20T01:23:28.215Z,11.08
2019-05-20T01:25:58.043Z,11.10
2019-05-20T01:28:27.746Z,10.60
2019-05-20T01:30:57.630Z,9.38
2019-05-20T01:33:27.407Z,11.53
2019-05-20T01:35:57.136Z,10.20
2019-05-20T01:38:26.996Z,11.40
2019-05-20T01:40:56.733Z,14.20
2019-05-20T01:43:26.437Z,9.90
2019-05-20T01:45:56.176Z,11.80
2019-05-20T01:48:25.907Z,10.23
2019-05-20T01:50:55.650Z,11.40
2019-05-20T01:53:25.386Z,9.95
2019-05-20T01:55:57.985Z,11.05
2019-05-20T01:58:27.795Z,15.08
2019-05-20T02:00:57.676Z,12.68
2019-05-20T02:03:31.679Z,9.45
2019-05-20T02:05:59.099Z,10.82
2019-05-20T02:08:29.010Z,11.55
2019-05-20T02:10:58.788Z,11.97
2019-05-20T02:13:47.587Z,11.48
2019-05-20T02:16:18.121Z,9.40
2019-05-20T02:18:47.997Z,10.23
2019-05-20T02:21:17.942Z,14.63
2019-05-20T02:23:47.808Z,12.15
2019-05-20T02:26:17.632Z,12.70
2019-05-20T02:28:47.481Z,14.07
2019-05-20T02:31:17.224Z,17.35
2019-05-20T02:33:52.403Z,13.20
2019-05-20T02:36:18.592Z,13.15
2019-05-20T02:38:48.447Z,12.53
2019-05-20T02:41:18.244Z,13.58
2019-05-20T02:43:48.256Z,13.58
2019-05-20T02:46:18.112Z,13.68
2019-05-20T02:48:48.976Z,12.85
2019-05-20T02:51:30.972Z,14.78
2019-05-20T02:54:02.558Z,13.53
2019-05-20T02:56:32.626Z,11.83
2019-05-20T02:59:02.576Z,11.93
2019-05-20T03:01:32.440Z,14.25
2019-05-20T03:04:11.330Z,16.05
2019-05-20T03:06:33.658Z,15.50
2019-05-20T03:09:03.904Z,12.90
2019-05-20T03:11:33.701Z,14.98
2019-05-20T03:14:03.595Z,14.65
2019-05-20T03:16:33.808Z,15.28
2019-05-20T03:19:03.696Z,15.83
2019-05-20T03:21:33.542Z,15.48
2019-05-20T03:24:03.390Z,18.20
2019-05-20T03:26:33.210Z,17.67
2019-05-20T03:29:03.108Z,15.30
2019-05-20T03:31:32.982Z,15.98
2019-05-20T03:34:02.775Z,16.57
2019-05-20T03:36:32.597Z,15.70
2019-05-20T03:39:03.147Z,24.00
2019-05-20T03:41:32.947Z,18.40
2019-05-20T03:44:02.748Z,17.80
2019-05-20T03:46:32.583Z,24.72
2019-05-20T03:49:02.311Z,17.57
2019-05-20T03:51:32.104Z,19.25
2019-05-20T03:54:01.843Z,19.80
2019-05-20T03:56:31.579Z,16.67
2019-05-20T03:59:01.751Z,29.20
2019-05-20T04:01:31.799Z,29.10
2019-05-20T04:04:01.652Z,48.85
2019-05-20T04:06:31.369Z,17.82
2019-05-20T04:09:01.190Z,23.05
2019-05-20T04:11:32.189Z,22.67
2019-05-20T04:14:02.006Z,22.37
2019-05-20T04:16:31.714Z,22.87
2019-05-20T04:19:01.450Z,19.37
2019-05-20T04:21:31.325Z,22.80
2019-05-20T04:24:02.114Z,17.02
2019-05-20T04:26:32.174Z,21.82
2019-05-20T04:29:02.215Z,19.65
2019-05-20T04:31:33.167Z,18.50
2019-05-20T04:34:03.056Z,23.00
2019-05-20T04:36:32.842Z,18.60
2019-05-20T04:39:02.735Z,22.67
2019-05-20T04:41:35.634Z,17.92
2019-05-20T04:44:04.200Z,21.93
2019-05-20T04:46:34.103Z,20.40
2019-05-20T04:49:03.989Z,20.30
2019-05-20T04:51:33.725Z,22.75
2019-05-20T04:54:03.472Z,22.80
2019-05-20T04:56:33.261Z,24.02
2019-05-20T04:59:03.071Z,25.00
2019-05-20T05:01:32.900Z,23.85
2019-05-20T05:04:02.786Z,24.37
2019-05-20T05:06:32.680Z,22.00
2019-05-20T05:09:02.656Z,23.55
2019-05-20T05:11:32.576Z,25.12
2019-05-20T05:14:02.475Z,34.78
2019-05-20T05:16:32.355Z,32.53
2019-05-20T05:19:02.257Z,25.80
2019-05-20T05:21:32.059Z,33.18
2019-05-20T05:24:01.868Z,25.17
2019-05-20T05:26:31.739Z,30.55
2019-05-20T05:29:01.638Z,28.73
2019-05-20T05:31:31.496Z,29.95
2019-05-20T05:34:01.310Z,32.98
2019-05-20T05:36:31.173Z,30.30
2019-05-20T05:39:01.094Z,36.63
2019-05-20T05:41:30.954Z,30.95
2019-05-20T05:44:00.715Z,28.00
2019-05-20T05:46:30.446Z,38.98
2019-05-20T05:49:00.243Z,34.30
2019-05-20T05:51:30.020Z,28.17
2019-05-20T05:53:59.895Z,34.73
2019-05-20T05:56:29.720Z,29.50
2019-05-20T05:58:59.432Z,36.85
2019-05-20T06:01:29.167Z,33.42
2019-05-20T06:03:59.059Z,31.52
2019-05-20T06:06:28.797Z,30.88
2019-05-20T06:08:58.612Z,29.55
2019-05-20T06:11:28.489Z,36.70
2019-05-20T06:13:58.274Z,33.42
2019-05-20T06:16:36.618Z,27.22
2019-05-20T06:18:59.595Z,31.00
2019-05-20T06:21:29.415Z,32.10
2019-05-20T06:23:59.324Z,32.23
2019-05-20T06:26:29.299Z,30.48
2019-05-20T06:29:02.739Z,30.27
2019-05-20T06:31:30.995Z,33.53
2019-05-20T06:34:00.728Z,35.35
2019-05-20T06:36:31.286Z,32.98
2019-05-20T06:39:11.590Z,32.25
2019-05-20T06:41:42.145Z,30.77
2019-05-20T06:44:12.007Z,30.55
2019-05-20T06:46:41.891Z,27.22
2019-05-20T06:49:11.791Z,30.55
2019-05-20T06:51:41.529Z,33.67
2019-05-20T06:54:11.982Z,30.30
2019-05-20T06:56:42.901Z,33.23
2019-05-20T06:59:12.903Z,27.73
2019-05-20T07:01:42.853Z,26.52
2019-05-20T07:04:12.808Z,25.10
2019-05-20T07:06:46.832Z,30.37
2019-05-20T07:09:14.205Z,29.27
2019-05-20T07:11:52.355Z,27.67
2019-05-20T07:14:15.535Z,30.35
2019-05-20T07:16:45.369Z,25.88
2019-05-20T07:19:15.165Z,28.92
2019-05-20T07:21:45.002Z,25.17
2019-05-20T07:24:14.870Z,27.30
2019-05-20T07:26:44.682Z,23.60
2019-05-20T07:29:14.489Z,26.62
2019-05-20T07:31:44.232Z,27.52
2019-05-20T07:34:15.123Z,28.07
2019-05-20T07:37:01.433Z,27.42
2019-05-20T07:39:16.543Z,27.07
2019-05-20T07:41:46.349Z,31.85
2019-05-20T07:44:16.258Z,28.87
2019-05-20T07:46:46.384Z,35.03
2019-05-20T07:49:16.430Z,25.08
2019-05-20T07:51:46.999Z,31.40
2019-05-20T07:54:17.706Z,30.68
2019-05-20T07:56:49.203Z,28.65
2019-05-20T07:59:22.418Z,30.45
2019-05-20T08:01:52.487Z,28.80
2019-05-20T08:04:22.405Z,27.35
2019-05-20T08:06:52.295Z,29.05
2019-05-20T08:09:22.104Z,28.50
2019-05-20T08:11:51.986Z,23.73
2019-05-20T08:14:21.875Z,26.40
2019-05-20T08:16:51.717Z,27.02
2019-05-20T08:19:21.682Z,29.87
2019-05-20T08:21:51.565Z,27.95
2019-05-20T08:24:21.457Z,29.87
2019-05-20T08:26:51.414Z,28.32
2019-05-20T08:29:21.393Z,27.15
2019-05-20T08:31:51.187Z,26.48
2019-05-20T08:34:21.075Z,30.20
2019-05-20T08:36:50.936Z,27.42
2019-05-20T08:39:20.841Z,26.62
2019-05-20T08:41:50.681Z,28.90
2019-05-20T08:44:20.417Z,27.82
2019-05-20T08:46:50.279Z,25.75
2019-05-20T08:49:20.138Z,26.00
2019-05-20T08:51:50.008Z,27.75
2019-05-20T08:54:19.753Z,30.45
2019-05-20T08:56:49.951Z,31.20
2019-05-20T08:59:19.770Z,27.62
2019-05-20T09:01:49.689Z,23.67
2019-05-20T09:04:19.566Z,27.07
2019-05-20T09:06:49.354Z,27.02
2019-05-20T09:09:19.203Z,33.65
2019-05-20T09:11:50.191Z,28.67
2019-05-20T09:14:19.926Z,29.57
2019-05-20T09:16:49.864Z,25.65
2019-05-20T09:19:19.882Z,29.30
2019-05-20T09:21:49.800Z,27.42
2019-05-20T09:24:19.793Z,24.50
2019-05-20T09:26:49.647Z,28.25
2019-05-20T09:29:19.464Z,33.15
2019-05-20T09:31:49.339Z,29.00
2019-05-20T09:34:20.244Z,33.58
2019-05-20T09:36:50.360Z,23.92
2019-05-20T09:39:20.381Z,28.45
2019-05-20T09:41:50.278Z,26.77
2019-05-20T09:44:20.107Z,28.42
2019-05-20T09:46:49.970Z,29.32
2019-05-20T09:49:19.796Z,30.00
2019-05-20T09:51:49.523Z,28.80
2019-05-20T09:54:19.272Z,32.20
2019-05-20T09:56:49.036Z,28.60
2019-05-20T09:59:18.960Z,29.60
2019-05-20T10:01:50.039Z,30.40
2019-05-20T10:04:20.360Z,28.45
2019-05-20T10:06:50.258Z,28.40
2019-05-20T10:09:20.174Z,30.62
2019-05-20T10:11:50.092Z,30.88
2019-05-20T10:14:20.205Z,30.30
2019-05-20T10:16:50.079Z,29.32
2019-05-20T10:19:19.901Z,27.87
2019-05-20T10:21:50.742Z,24.90
2019-05-20T10:24:21.210Z,26.37
2019-05-20T10:26:52.097Z,30.00
2019-05-20T10:29:21.922Z,29.07
2019-05-20T10:31:51.678Z,31.52
2019-05-20T10:34:21.469Z,29.85
2019-05-20T10:36:51.298Z,28.62
2019-05-20T10:39:21.171Z,26.62
2019-05-20T10:41:51.077Z,29.37
2019-05-20T10:44:20.820Z,29.37
2019-05-20T10:46:50.649Z,30.48
2019-05-20T10:49:20.476Z,27.48
2019-05-20T10:51:50.281Z,30.70
2019-05-20T10:54:20.079Z,31.40
2019-05-20T10:56:49.859Z,29.92
2019-05-20T10:59:19.735Z,29.82
2019-05-20T11:01:49.641Z,33.10
2019-05-20T11:04:19.454Z,34.27
2019-05-20T11:06:49.271Z,27.82
2019-05-20T11:09:19.086Z,30.90
2019-05-20T11:11:48.899Z,30.08
2019-05-20T11:14:18.706Z,30.43
2019-05-20T11:16:48.539Z,30.82
2019-05-20T11:19:18.339Z,29.77
2019-05-20T11:21:48.239Z,31.50
2019-05-20T11:24:18.050Z,31.23
2019-05-20T11:26:47.809Z,28.23
2019-05-20T11:29:17.591Z,30.40
2019-05-20T11:31:47.602Z,32.42
2019-05-20T11:34:17.502Z,28.47
2019-05-20T11:36:48.359Z,32.17
2019-05-20T11:39:32.437Z,31.82
2019-05-20T11:41:54.365Z,27.77
2019-05-20T11:44:21.346Z,30.72
2019-05-20T11:46:51.175Z,29.23
2019-05-20T11:49:20.989Z,30.37
2019-05-20T11:51:50.797Z,35.88
2019-05-20T11:54:20.682Z,33.60
2019-05-20T11:56:50.443Z,26.55
2019-05-20T11:59:20.255Z,33.75
2019-05-20T12:01:50.019Z,35.25
2019-05-20T12:04:19.827Z,35.17
2019-05-20T12:06:49.574Z,33.30
2019-05-20T12:09:19.306Z,33.42
2019-05-20T12:11:49.151Z,32.95
2019-05-20T12:14:19.091Z,33.30
2019-05-20T12:16:49.970Z,36.88
2019-05-20T12:19:19.796Z,37.45
2019-05-20T12:21:49.617Z,32.08
2019-05-20T12:24:19.499Z,32.38
2019-05-20T12:26:49.244Z,38.88
2019-05-20T12:29:19.071Z,30.85
2019-05-20T12:31:50.083Z,31.90
2019-05-20T12:34:21.932Z,38.95
2019-05-20T12:36:51.899Z,29.57
2019-05-20T12:39:21.718Z,31.27
2019-05-20T12:41:51.591Z,33.28
2019-05-20T12:44:21.409Z,34.98
2019-05-20T12:46:51.287Z,36.65
2019-05-20T12:49:21.155Z,34.85
2019-05-20T12:51:51.111Z,28.05
2019-05-20T12:54:21.182Z,32.73
2019-05-20T12:56:51.003Z,34.75
2019-05-20T12:59:20.749Z,33.90
2019-05-20T13:01:50.545Z,37.40
2019-05-20T13:04:20.292Z,30.45
2019-05-20T13:06:50.004Z,35.38
2019-05-20T13:09:19.818Z,27.93
2019-05-20T13:11:49.689Z,30.70
2019-05-20T13:14:19.447Z,33.70
2019-05-20T13:16:49.335Z,35.33
2019-05-20T13:19:19.088Z,34.45
2019-05-20T13:21:48.963Z,32.65
2019-05-20T13:24:18.736Z,36.13
2019-05-20T13:26:48.619Z,37.30
2019-05-20T13:29:18.436Z,33.33
2019-05-20T13:31:48.245Z,33.18
2019-05-20T13:34:18.687Z,28.73
2019-05-20T13:36:48.704Z,36.05
2019-05-20T13:39:18.458Z,29.63
2019-05-20T13:41:48.249Z,33.10
2019-05-20T13:44:18.136Z,31.48
2019-05-20T13:46:47.961Z,30.77
2019-05-20T13:49:17.796Z,32.70
2019-05-20T13:51:47.566Z,28.55
2019-05-20T13:54:17.433Z,32.38
2019-05-20T13:56:47.300Z,33.55
2019-05-20T13:59:17.210Z,31.23
2019-05-20T14:01:47.075Z,31.20
2019-05-20T14:04:16.986Z,30.92
2019-05-20T14:06:46.802Z,25.88
2019-05-20T14:09:16.677Z,29.75
2019-05-20T14:11:46.525Z,29.10
2019-05-20T14:14:16.333Z,31.70
2019-05-20T14:16:46.125Z,29.95
2019-05-20T14:19:15.931Z,27.85
2019-05-20T14:21:45.730Z,29.12
2019-05-20T14:24:15.543Z,27.30
2019-05-20T14:26:45.440Z,26.10
2019-05-20T14:29:15.359Z,26.37
2019-05-20T14:31:45.158Z,27.82
2019-05-20T14:34:14.930Z,24.43
2019-05-20T14:36:44.683Z,28.12
2019-05-20T14:39:14.422Z,26.30
2019-05-20T14:41:44.182Z,24.50
2019-05-20T14:44:13.978Z,25.65
2019-05-20T14:46:43.791Z,22.55
2019-05-20T14:49:13.606Z,25.08
2019-05-20T14:51:43.418Z,25.08
2019-05-20T14:54:13.222Z,26.52
2019-05-20T14:56:42.973Z,24.07
2019-05-20T14:59:12.699Z,23.98
2019-05-20T15:01:43.518Z,27.77
2019-05-20T15:04:14.311Z,25.30
2019-05-20T15:06:44.202Z,24.00
2019-05-20T15:09:14.007Z,24.07
2019-05-20T15:11:43.953Z,25.20
2019-05-20T15:14:13.848Z,24.27
2019-05-20T15:16:44.701Z,23.02
2019-05-20T15:19:15.572Z,26.95
2019-05-20T15:21:45.343Z,20.72
2019-05-20T15:24:15.178Z,20.72
2019-05-20T15:26:45.037Z,22.75
2019-05-20T15:29:27.448Z,24.12
2019-05-20T15:31:47.077Z,24.65
2019-05-20T15:34:16.891Z,24.55
2019-05-20T15:36:46.779Z,22.65
2019-05-20T15:39:16.536Z,20.12
2019-05-20T15:41:46.375Z,22.62
2019-05-20T15:44:16.312Z,24.07
2019-05-20T15:46:46.143Z,20.95
2019-05-20T15:49:16.946Z,22.17
2019-05-20T15:51:46.886Z,18.85
2019-05-20T15:54:16.717Z,19.52
2019-05-20T15:56:46.449Z,21.77
2019-05-20T15:59:16.310Z,22.05
2019-05-20T16:01:46.072Z,21.35
2019-05-20T16:04:15.866Z,22.40
2019-05-20T16:06:45.606Z,19.23
2019-05-20T16:09:17.441Z,22.02
2019-05-20T16:11:47.493Z,23.25
2019-05-20T16:14:17.220Z,17.45
2019-05-20T16:16:47.108Z,21.37
2019-05-20T16:19:16.987Z,20.70
2019-05-20T16:21:47.995Z,44.20
2019-05-20T16:24:19.012Z,53.70
2019-05-20T16:26:49.804Z,24.90
2019-05-20T16:29:19.669Z,24.37
2019-05-20T16:31:49.562Z,22.67
2019-05-20T16:34:19.454Z,21.62
2019-05-20T16:36:49.337Z,24.18
2019-05-20T16:39:19.210Z,22.82
2019-05-20T16:41:49.109Z,26.48
2019-05-20T16:44:18.913Z,18.50
2019-05-20T16:46:48.818Z,21.62
2019-05-20T16:49:18.613Z,21.97
2019-05-20T16:51:48.637Z,21.85
2019-05-20T16:54:18.446Z,23.77
2019-05-20T16:56:48.283Z,22.62
2019-05-20T16:59:18.126Z,23.32
2019-05-20T17:01:47.849Z,23.57
2019-05-20T17:04:17.814Z,23.30
2019-05-20T17:06:47.614Z,26.15
2019-05-20T17:09:17.499Z,23.83
2019-05-20T17:11:47.223Z,24.60
2019-05-20T17:14:16.971Z,26.52
2019-05-20T17:16:46.686Z,23.77
2019-05-20T17:19:16.522Z,26.07
2019-05-20T17:21:46.262Z,27.17
2019-05-20T17:24:16.083Z,29.23
2019-05-20T17:26:45.970Z,25.35
2019-05-20T17:29:15.842Z,26.97
2019-05-20T17:31:45.647Z,28.27
2019-05-20T17:34:15.402Z,25.68
2019-05-20T17:36:45.259Z,29.35
2019-05-20T17:39:16.127Z,30.35
2019-05-20T17:41:46.936Z,30.25
2019-05-20T17:44:17.081Z,29.45
2019-05-20T17:46:49.365Z,28.85
2019-05-20T17:49:24.707Z,27.45
2019-05-20T17:51:56.437Z,28.75
2019-05-20T17:54:40.075Z,28.55
2019-05-20T17:57:05.398Z,27.20
2019-05-20T17:59:48.851Z,28.62
2019-05-20T18:02:21.130Z,28.35
2019-05-20T18:04:57.996Z,29.12
2019-05-20T18:07:32.663Z,29.95
2019-05-20T18:10:03.843Z,31.62
2019-05-20T18:12:35.328Z,30.45
2019-05-20T18:15:07.129Z,29.50
2019-05-20T18:17:41.436Z,29.80
2019-05-20T18:20:11.911Z,31.12
2019-05-20T18:23:06.817Z,28.10
2019-05-20T18:25:36.647Z,27.58
2019-05-20T18:28:06.523Z,27.07
2019-05-20T18:30:36.491Z,27.10
2019-05-20T18:33:06.427Z,32.30
2019-05-20T18:35:36.257Z,28.95
2019-05-20T18:38:06.962Z,25.92
2019-05-20T18:40:36.855Z,30.17
2019-05-20T18:43:07.557Z,25.48
2019-05-20T18:45:37.534Z,26.77
2019-05-20T18:48:07.405Z,33.60
2019-05-20T18:50:37.420Z,27.55
2019-05-20T18:53:07.326Z,28.12
2019-05-20T18:55:37.067Z,24.27
2019-05-20T18:58:06.862Z,25.05
2019-05-20T19:00:36.673Z,28.50
2019-05-20T19:03:06.549Z,27.17
2019-05-20T19:05:36.295Z,26.90
2019-05-20T19:08:06.470Z,25.55
2019-05-20T19:10:36.376Z,19.77
2019-05-20T19:13:06.354Z,28.52
2019-05-20T19:15:36.512Z,24.63
2019-05-20T19:18:06.379Z,25.50
2019-05-20T19:20:36.112Z,24.57
2019-05-20T19:23:05.990Z,26.70
2019-05-20T19:25:38.040Z,23.12
2019-05-20T19:28:07.367Z,28.12
2019-05-20T19:30:37.202Z,25.30
2019-05-20T19:33:07.486Z,20.60
2019-05-20T19:35:37.575Z,27.62
2019-05-20T19:38:07.430Z,22.37
2019-05-20T19:40:37.707Z,25.97
2019-05-20T19:43:07.562Z,30.60
2019-05-20T19:45:37.889Z,28.35
2019-05-20T19:48:07.654Z,27.58
2019-05-20T19:50:37.578Z,27.13
2019-05-20T19:53:07.584Z,23.25
2019-05-20T19:55:37.590Z,23.83
2019-05-20T19:58:07.460Z,20.52
2019-05-20T20:00:37.387Z,26.07
2019-05-20T20:03:07.187Z,20.80
2019-05-20T20:05:36.927Z,18.62
2019-05-20T20:08:06.714Z,20.27
2019-05-20T20:10:36.654Z,18.05
2019-05-20T20:13:06.583Z,17.85
2019-05-20T20:15:36.428Z,18.05
2019-05-20T20:18:06.318Z,19.67
2019-05-20T20:20:37.606Z,17.75
2019-05-20T20:23:07.725Z,15.78
2019-05-20T20:25:37.634Z,18.62
2019-05-20T20:28:07.536Z,18.30
2019-05-20T20:30:37.334Z,17.50
2019-05-20T20:33:07.166Z,19.42
2019-05-20T20:35:38.404Z,17.02
2019-05-20T20:38:08.486Z,18.37
2019-05-20T20:40:38.331Z,18.62
2019-05-20T20:43:08.256Z,19.25
2019-05-20T20:45:38.062Z,19.92
2019-05-20T20:48:07.925Z,19.85
2019-05-20T20:50:37.740Z,15.88
2019-05-20T20:53:07.878Z,18.77
2019-05-20T20:55:37.896Z,19.98
2019-05-20T20:58:07.677Z,15.68
2019-05-20T21:00:37.665Z,15.72
2019-05-20T21:03:07.451Z,16.85
2019-05-20T21:05:37.203Z,14.93
2019-05-20T21:08:06.936Z,17.50
2019-05-20T21:10:36.700Z,18.05
2019-05-20T21:13:06.492Z,18.23
2019-05-20T21:15:37.307Z,17.02
2019-05-20T21:18:07.264Z,15.38
2019-05-20T21:20:38.336Z,19.10
2019-05-20T21:23:08.144Z,17.12
2019-05-20T21:25:37.972Z,15.68
2019-05-20T21:28:07.853Z,17.98
2019-05-20T21:30:37.677Z,18.35
2019-05-20T21:33:09.638Z,16.40
2019-05-20T21:35:39.899Z,16.35
2019-05-20T21:38:09.787Z,14.95
2019-05-20T21:40:39.581Z,17.15
2019-05-20T21:43:09.390Z,17.55
2019-05-20T21:45:39.187Z,15.85
2019-05-20T21:48:11.619Z,13.68
2019-05-20T21:50:41.397Z,17.82
2019-05-20T21:53:11.219Z,16.93
2019-05-20T21:55:40.976Z,15.48
2019-05-20T21:58:10.704Z,15.40
2019-05-20T22:00:45.967Z,15.08
2019-05-20T22:03:23.869Z,15.30
2019-05-20T22:05:47.442Z,16.55
2019-05-20T22:08:17.601Z,16.48
2019-05-20T22:10:47.726Z,19.30
2019-05-20T22:13:17.628Z,17.48
2019-05-20T22:15:47.514Z,16.60
2019-05-20T22:18:17.341Z,15.38
2019-05-20T22:20:47.325Z,16.85
2019-05-20T22:23:40.270Z,16.37
2019-05-20T22:26:29.258Z,16.67
2019-05-20T22:28:58.991Z,13.62
2019-05-20T22:31:28.862Z,16.55
2019-05-20T22:33:58.681Z,14.85
2019-05-20T22:36:28.525Z,16.15
2019-05-20T22:38:58.298Z,16.17
2019-05-20T22:41:28.007Z,16.15
2019-05-20T22:43:57.816Z,13.50
2019-05-20T22:46:27.706Z,14.47
2019-05-20T22:48:57.494Z,14.45
2019-05-20T22:51:27.219Z,14.15
2019-05-20T22:53:57.030Z,14.65
2019-05-20T22:56:26.762Z,17.02
2019-05-20T22:58:56.641Z,15.55
2019-05-20T23:01:26.503Z,14.40
2019-05-20T23:03:56.807Z,13.50
2019-05-20T23:06:26.729Z,14.20
2019-05-20T23:08:56.611Z,13.93
2019-05-20T23:11:26.430Z,14.45
2019-05-20T23:13:57.574Z,14.60
2019-05-20T23:16:27.294Z,12.43
2019-05-20T23:18:57.043Z,14.07
2019-05-20T23:21:26.779Z,12.25
2019-05-20T23:23:56.518Z,13.08
2019-05-20T23:26:26.301Z,11.70
2019-05-20T23:28:56.132Z,11.33
2019-05-20T23:31:25.997Z,14.33
2019-05-20T23:34:10.320Z,13.05
2019-05-20T23:36:27.179Z,11.08
2019-05-20T23:38:57.001Z,10.08
2019-05-20T23:41:26.783Z,11.78
2019-05-20T23:43:56.654Z,11.57
2019-05-20T23:46:26.396Z,10.80
2019-05-20T23:48:56.148Z,10.23
2019-05-20T23:51:25.982Z,10.35
2019-05-20T23:53:55.846Z,10.43
2019-05-20T23:56:25.598Z,11.03
2019-05-20T23:58:55.471Z,8.78
